createdAt,value
2023-01-21T00:03:53.268Z,100567.80
2023-01-21T00:08:45.998Z,100571.75
2023-01-21T00:13:38.776Z,100572.96
2023-01-21T00:18:31.821Z,100575.16
2023-01-21T00:23:24.545Z,100571.89
2023-01-21T00:28:17.257Z,100558.77
2023-01-21T00:33:09.922Z,100548.80
2023-01-21T00:38:02.614Z,100536.93
2023-01-21T00:42:55.303Z,100534.89
2023-01-21T00:47:48.671Z,100539.75
2023-01-21T00:52:41.519Z,100538.83
2023-01-21T00:57:34.759Z,100529.43
2023-01-21T01:02:27.606Z,100518.83
2023-01-21T01:07:20.331Z,100506.17
2023-01-21T01:12:13.055Z,100506.69
2023-01-21T01:17:06.001Z,100504.20
2023-01-21T01:21:58.709Z,100499.36
2023-01-21T01:26:51.412Z,100492.55
2023-01-21T01:31:44.725Z,100493.37
2023-01-21T01:36:37.403Z,100485.02
2023-01-21T01:41:30.882Z,100466.95
2023-01-21T01:46:24.221Z,100452.75
2023-01-21T01:51:19.958Z,100445.14
2023-01-21T01:56:13.353Z,100436.30
2023-01-21T02:01:06.125Z,100421.70
2023-01-21T02:05:59.214Z,100410.52
2023-01-21T02:10:54.056Z,100402.20
2023-01-21T02:15:46.842Z,100395.66
2023-01-21T02:21:07.724Z,100398.05
2023-01-21T02:26:20.869Z,100392.36
2023-01-21T02:31:34.781Z,100391.83
2023-01-21T02:36:27.499Z,100387.11
2023-01-21T02:41:20.148Z,100386.21
2023-01-21T02:46:39.008Z,100382.97
2023-01-21T02:51:31.699Z,100374.21
2023-01-21T02:56:26.190Z,100370.23
2023-01-21T03:01:35.001Z,100361.64
2023-01-21T03:06:49.152Z,100352.60
2023-01-21T03:11:45.568Z,100345.27
2023-01-21T03:16:59.724Z,100332.03
2023-01-21T03:21:53.301Z,100328.38
2023-01-21T03:26:49.025Z,100320.63
2023-01-21T03:31:43.885Z,100317.02
2023-01-21T03:36:51.339Z,100327.61
2023-01-21T03:41:44.093Z,100320.66
2023-01-21T03:46:36.737Z,100309.92
2023-01-21T03:51:37.412Z,100303.58
2023-01-21T03:56:30.426Z,100300.73
2023-01-21T04:01:23.282Z,100303.99
2023-01-21T04:06:16.973Z,100305.93
2023-01-21T04:11:09.677Z,100303.70
2023-01-21T04:16:02.426Z,100302.17
2023-01-21T04:20:55.137Z,100315.65
2023-01-21T04:25:51.532Z,100318.08
2023-01-21T04:30:44.292Z,100318.11
2023-01-21T04:35:37.384Z,100315.00
2023-01-21T04:40:30.358Z,100315.59
2023-01-21T04:45:23.037Z,100311.98
2023-01-21T04:50:16.601Z,100304.83
2023-01-21T04:55:10.498Z,100307.04
2023-01-21T05:00:05.536Z,100303.27
2023-01-21T05:04:58.259Z,100303.19
2023-01-21T05:09:51.019Z,100308.48
2023-01-21T05:14:43.698Z,100298.63
2023-01-21T05:19:36.383Z,100300.17
2023-01-21T05:24:29.146Z,100299.05
2023-01-21T05:29:22.484Z,100306.09
2023-01-21T05:34:15.185Z,100302.86
2023-01-21T05:39:07.872Z,100303.55
2023-01-21T05:44:00.545Z,100300.67
2023-01-21T05:48:53.262Z,100304.52
2023-01-21T05:53:46.490Z,100304.71
2023-01-21T05:58:39.249Z,100306.77
2023-01-21T06:03:32.015Z,100307.45
2023-01-21T06:08:24.748Z,100307.45
2023-01-21T06:13:17.964Z,100308.46
2023-01-21T06:18:10.894Z,100309.33
2023-01-21T06:23:03.615Z,100307.27
2023-01-21T06:27:56.762Z,100312.89
2023-01-21T06:32:49.398Z,100314.61
2023-01-21T06:37:42.101Z,100320.09
2023-01-21T06:42:34.822Z,100321.40
2023-01-21T06:47:27.503Z,100324.34
2023-01-21T06:52:20.177Z,100327.58
2023-01-21T06:57:13.044Z,100326.19
2023-01-21T07:02:05.752Z,100333.27
2023-01-21T07:06:58.449Z,100327.11
2023-01-21T07:11:51.186Z,100328.00
2023-01-21T07:16:43.952Z,100328.48
2023-01-21T07:21:36.654Z,100330.10
2023-01-21T07:26:29.843Z,100331.90
2023-01-21T07:31:22.703Z,100333.75
2023-01-21T07:36:15.543Z,100332.05
2023-01-21T07:41:08.563Z,100327.34
2023-01-21T07:46:01.472Z,100328.98
2023-01-21T07:50:57.491Z,100327.27
2023-01-21T07:55:50.181Z,100328.45
2023-01-21T08:00:42.862Z,100328.39
2023-01-21T08:05:35.677Z,100325.25
2023-01-21T08:10:28.401Z,100329.65
2023-01-21T08:15:21.142Z,100333.11
2023-01-21T08:20:14.075Z,100338.36
2023-01-21T08:25:07.505Z,100345.69
2023-01-21T08:30:00.206Z,100350.10
2023-01-21T08:34:52.943Z,100357.95
2023-01-21T08:39:45.630Z,100360.87
2023-01-21T08:44:38.341Z,100361.17
2023-01-21T08:49:31.061Z,100367.17
2023-01-21T08:54:24.209Z,100373.20
2023-01-21T08:59:17.064Z,100379.56
2023-01-21T09:04:11.065Z,100378.31
2023-01-21T09:09:03.776Z,100383.43
2023-01-21T09:13:58.053Z,100387.30
2023-01-21T09:18:51.132Z,100389.93
2023-01-21T09:23:44.558Z,100397.25
2023-01-21T09:28:39.097Z,100398.64
2023-01-21T09:33:32.584Z,100402.73
2023-01-21T09:38:25.982Z,100403.43
2023-01-21T09:43:25.311Z,100412.18
2023-01-21T09:48:22.177Z,100413.33
2023-01-21T09:53:33.664Z,100414.63
2023-01-21T09:58:48.388Z,100418.56
2023-01-21T10:04:00.590Z,100416.73
2023-01-21T10:09:02.224Z,100429.42
2023-01-21T10:14:04.253Z,100436.05
2023-01-21T10:18:58.732Z,100432.59
2023-01-21T10:23:53.515Z,100431.20
2023-01-21T10:28:51.808Z,100435.11
2023-01-21T10:33:44.512Z,100437.88
2023-01-21T10:38:43.019Z,100438.59
2023-01-21T10:43:47.810Z,100444.71
2023-01-21T10:49:05.422Z,100451.04
2023-01-21T10:54:01.867Z,100456.73
2023-01-21T10:59:00.353Z,100459.92
2023-01-21T11:03:58.329Z,100468.20
2023-01-21T11:08:53.976Z,100470.06
2023-01-21T11:13:46.715Z,100474.46
2023-01-21T11:18:41.118Z,100482.23
2023-01-21T11:23:35.490Z,100485.48
2023-01-21T11:28:30.290Z,100489.08
2023-01-21T11:33:22.971Z,100488.24
2023-01-21T11:38:24.442Z,100495.52
2023-01-21T11:43:33.843Z,100500.54
2023-01-21T11:48:26.636Z,100506.45
2023-01-21T11:53:20.168Z,100509.81
2023-01-21T11:58:18.896Z,100517.95
2023-01-21T12:03:16.909Z,100526.27
2023-01-21T12:08:19.977Z,100531.45
2023-01-21T12:13:18.892Z,100538.49
2023-01-21T12:18:30.623Z,100545.48
2023-01-21T12:23:41.527Z,100550.72
2023-01-21T12:28:57.848Z,100560.14
2023-01-21T12:34:03.405Z,100563.40
2023-01-21T12:39:07.685Z,100575.59
2023-01-21T12:44:18.913Z,100587.15
2023-01-21T12:49:24.999Z,100587.70
2023-01-21T12:54:36.579Z,100592.63
2023-01-21T12:59:34.303Z,100595.75
2023-01-21T13:04:36.317Z,100606.27
2023-01-21T13:09:32.074Z,100612.80
2023-01-21T13:14:42.295Z,100623.86
2023-01-21T13:19:35.794Z,100632.70
2023-01-21T13:24:47.008Z,100635.83
2023-01-21T13:29:46.911Z,100643.58
2023-01-21T13:35:07.713Z,100648.11
2023-01-21T13:40:12.247Z,100653.86
2023-01-21T13:45:11.235Z,100656.94
2023-01-21T13:50:07.337Z,100667.60
2023-01-21T13:55:09.326Z,100672.91
2023-01-21T14:00:05.217Z,100685.23
2023-01-21T14:05:07.044Z,100694.09
2023-01-21T14:10:18.152Z,100696.80
2023-01-21T14:15:20.422Z,100707.70
2023-01-21T14:20:28.486Z,100715.73
2023-01-21T14:25:40.052Z,100724.42
2023-01-21T14:30:40.860Z,100731.83
2023-01-21T14:35:52.099Z,100738.11
2023-01-21T14:40:51.717Z,100750.88
2023-01-21T14:45:50.720Z,100764.73
2023-01-21T14:50:53.817Z,100772.02
2023-01-21T14:55:46.904Z,100783.62
2023-01-21T15:00:46.087Z,100793.54
2023-01-21T15:05:38.961Z,100801.71
2023-01-21T15:10:34.777Z,100813.30
2023-01-21T15:15:27.534Z,100824.15
2023-01-21T15:20:39.728Z,100831.70
2023-01-21T15:25:34.443Z,100834.88
2023-01-21T15:30:29.582Z,100844.23
2023-01-21T15:35:32.777Z,100850.36
2023-01-21T15:40:27.172Z,100858.05
2023-01-21T15:45:24.960Z,100863.33
2023-01-21T15:50:47.220Z,100871.20
2023-01-21T15:55:50.465Z,100873.60
2023-01-21T16:00:58.401Z,100878.08
2023-01-21T16:06:08.938Z,100891.24
2023-01-21T16:11:01.603Z,100899.82
2023-01-21T16:16:14.847Z,100901.91
2023-01-21T16:21:07.819Z,100905.62
2023-01-21T16:26:00.512Z,100910.28
2023-01-21T16:30:57.592Z,100919.50
2023-01-21T16:35:51.708Z,100932.21
2023-01-21T16:40:44.553Z,100944.22
2023-01-21T16:45:37.665Z,100948.85
2023-01-21T16:50:32.141Z,100954.17
2023-01-21T16:55:26.777Z,100963.73
2023-01-21T17:00:25.757Z,100968.89
2023-01-21T17:05:18.806Z,100976.41
2023-01-21T17:10:23.250Z,100986.70
2023-01-21T17:15:38.519Z,100992.70
2023-01-21T17:20:43.833Z,100994.77
2023-01-21T17:25:37.763Z,101009.48
2023-01-21T17:30:30.510Z,101016.60
2023-01-21T17:35:24.007Z,101020.39
2023-01-21T17:40:32.035Z,101036.27
2023-01-21T17:45:30.649Z,101043.80
2023-01-21T17:50:23.341Z,101049.97
2023-01-21T17:55:27.321Z,101056.63
2023-01-21T18:00:29.150Z,101067.69
2023-01-21T18:05:22.070Z,101078.31
2023-01-21T18:10:16.109Z,101085.46
2023-01-21T18:15:10.369Z,101091.83
2023-01-21T18:20:03.187Z,101099.81
2023-01-21T18:24:56.368Z,101112.45
2023-01-21T18:29:49.273Z,101116.70
2023-01-21T18:34:42.102Z,101115.64
2023-01-21T18:39:34.809Z,101121.21
2023-01-21T18:44:27.525Z,101122.06
2023-01-21T18:49:21.261Z,101128.23
2023-01-21T18:54:18.167Z,101136.10
2023-01-21T18:59:13.079Z,101141.08
2023-01-21T19:04:09.632Z,101146.13
2023-01-21T19:09:02.633Z,101154.67
2023-01-21T19:13:55.364Z,101160.65
2023-01-21T19:18:48.457Z,101168.67
2023-01-21T19:23:41.301Z,101177.73
2023-01-21T19:28:34.774Z,101184.42
2023-01-21T19:33:27.777Z,101191.74
2023-01-21T19:38:21.999Z,101195.17
2023-01-21T19:43:15.821Z,101197.70
2023-01-21T19:48:13.560Z,101202.17
2023-01-21T19:53:06.534Z,101212.59
2023-01-21T19:58:02.214Z,101223.66
2023-01-21T20:02:55.219Z,101233.04
2023-01-21T20:07:49.160Z,101233.39
2023-01-21T20:12:43.947Z,101241.77
2023-01-21T20:17:38.749Z,101251.17
2023-01-21T20:22:31.471Z,101259.33
2023-01-21T20:27:24.180Z,101268.72
2023-01-21T20:32:16.860Z,101268.72
2023-01-21T20:37:11.016Z,101277.92
2023-01-21T20:42:03.700Z,101282.71
2023-01-21T20:46:57.049Z,101288.83
2023-01-21T20:51:49.717Z,101296.55
2023-01-21T20:56:42.432Z,101301.15
2023-01-21T21:01:39.434Z,101309.48
2023-01-21T21:06:33.769Z,101315.16
2023-01-21T21:11:28.983Z,101324.35
2023-01-21T21:16:27.895Z,101331.56
2023-01-21T21:21:23.696Z,101336.85
2023-01-21T21:26:18.569Z,101351.89
2023-01-21T21:31:13.526Z,101358.88
2023-01-21T21:36:06.451Z,101366.17
2023-01-21T21:41:19.133Z,101365.80
2023-01-21T21:46:27.208Z,101367.86
2023-01-21T21:51:21.741Z,101373.48
2023-01-21T21:56:15.990Z,101379.23
2023-01-21T22:01:08.765Z,101381.90
2023-01-21T22:06:04.044Z,101389.67
2023-01-21T22:10:57.805Z,101394.42
2023-01-21T22:15:57.376Z,101399.61
2023-01-21T22:20:51.976Z,101408.14
2023-01-21T22:25:44.654Z,101413.86
2023-01-21T22:30:37.415Z,101421.69
2023-01-21T22:35:30.332Z,101418.23
2023-01-21T22:40:23.093Z,101422.80
2023-01-21T22:45:15.930Z,101430.45
2023-01-21T22:50:09.522Z,101428.50
2023-01-21T22:55:02.192Z,101431.05
2023-01-21T22:59:54.872Z,101430.70
2023-01-21T23:04:47.593Z,101437.14
2023-01-21T23:09:40.333Z,101442.46
2023-01-21T23:14:33.116Z,101446.56
2023-01-21T23:19:26.671Z,101445.16
2023-01-21T23:24:19.708Z,101444.79
2023-01-21T23:29:12.391Z,101448.50
2023-01-21T23:34:05.098Z,101448.14
2023-01-21T23:38:57.751Z,101449.21
2023-01-21T23:43:50.631Z,101453.65
2023-01-21T23:48:43.655Z,101450.01
2023-01-21T23:53:36.379Z,101452.91
2023-01-21T23:58:29.050Z,101452.86
